Time;durP1;ratioP1;P1;durP2;ratioP2;P2;SDS_P1;SDS_P2;PMS_P1;PMS_P2;Temp;Humidity;BMP_temperature;BMP_pressure;BME280_temperature;BME280_humidity;BME280_pressure;Samples;Min_cycle;Max_cycle;Signal;HPM_P1;HPM_P2
2023/06/24 00:02:03;;;;;;;7.67;6.93;;;;;;;;;;5074813;28;20186;-86
2023/06/24 00:04:29;;;;;;;8.40;7.23;;;;;;;;;;5129379;27;20285;-85
2023/06/24 00:06:58;;;;;;;9.33;7.07;;;;;;;;;;5112113;28;20198;-79
2023/06/24 00:09:25;;;;;;;8.30;7.43;;;;;;;;;;5111158;28;20205;-78
2023/06/24 00:11:51;;;;;;;8.20;7.50;;;;;;;;;;5132135;27;20262;-78
2023/06/24 00:14:17;;;;;;;8.83;7.27;;;;;;;;;;5116991;28;20217;-78
2023/06/24 00:16:43;;;;;;;7.93;7.17;;;;;;;;;;5083939;28;20182;-78
2023/06/24 00:19:09;;;;;;;9.47;7.13;;;;;;;;;;5105559;28;20222;-78
2023/06/24 00:21:37;;;;;;;7.67;6.93;;;;;;;;;;5121141;27;20214;-78
2023/06/24 00:24:04;;;;;;;8.53;7.20;;;;;;;;;;5073414;28;20195;-76
2023/06/24 00:26:31;;;;;;;7.83;7.13;;;;;;;;;;5099085;28;20190;-76
2023/06/24 00:28:58;;;;;;;8.60;7.70;;;;;;;;;;5132768;27;20236;-76
2023/06/24 00:31:24;;;;;;;8.03;7.23;;;;;;;;;;5132682;27;20181;-76
2023/06/24 00:33:52;;;;;;;8.00;7.27;;;;;;;;;;5119057;27;20189;-76
2023/06/24 00:36:18;;;;;;;7.87;7.17;;;;;;;;;;5107399;27;20271;-76
2023/06/24 00:38:44;;;;;;;7.83;7.03;;;;;;;;;;5135759;27;20185;-76
2023/06/24 00:41:10;;;;;;;8.63;7.73;;;;;;;;;;5104967;28;20182;-76
2023/06/24 00:43:37;;;;;;;8.03;7.27;;;;;;;;;;5085677;27;20198;-76
2023/06/24 00:46:03;;;;;;;8.80;7.90;;;;;;;;;;5114550;28;20204;-76
2023/06/24 00:48:31;;;;;;;8.57;7.77;;;;;;;;;;5087255;27;20209;-76
2023/06/24 00:50:58;;;;;;;9.70;7.77;;;;;;;;;;5118387;27;20209;-76
2023/06/24 00:53:24;;;;;;;9.90;7.50;;;;;;;;;;5104989;22;20234;-79
2023/06/24 00:55:52;;;;;;;8.40;7.70;;;;;;;;;;5087519;28;20171;-78
2023/06/24 00:58:20;;;;;;;10.93;7.50;;;;;;;;;;5115097;28;20199;-85
2023/06/24 01:00:48;;;;;;;8.73;7.83;;;;;;;;;;5096869;28;20197;-85
2023/06/24 01:03:16;;;;;;;8.90;8.00;;;;;;;;;;5078089;28;20220;-85
2023/06/24 01:05:42;;;;;;;9.03;7.70;;;;;;;;;;5095248;28;20205;-84
2023/06/24 01:08:09;;;;;;;8.17;7.30;;;;;;;;;;5097505;28;20198;-84
2023/06/24 01:10:35;;;;;;;7.87;7.13;;;;;;;;;;5084403;28;20183;-85
2023/06/24 01:13:02;;;;;;;8.70;7.80;;;;;;;;;;5095610;28;20195;-79
2023/06/24 01:15:28;;;;;;;10.50;7.70;;;;;;;;;;5109082;28;20179;-78
2023/06/24 01:18:02;;;;;;;8.37;7.57;;;;;;;;;;5078006;28;20191;-79
2023/06/24 01:20:31;;;;;;;8.77;6.93;;;;;;;;;;5094945;28;20174;-79
2023/06/24 01:23:09;;;;;;;8.33;7.53;;;;;;;;;;5099006;28;20253;-79
2023/06/24 01:25:56;;;;;;;8.43;7.57;;;;;;;;;;5114126;28;20203;-79
2023/06/24 01:28:22;;;;;;;8.53;7.73;;;;;;;;;;5093607;28;20293;-78
2023/06/24 01:30:51;;;;;;;8.73;7.87;;;;;;;;;;5095580;28;20232;-85
2023/06/24 01:33:23;;;;;;;9.33;8.07;;;;;;;;;;5112329;28;20182;-85
2023/06/24 01:35:49;;;;;;;8.20;7.40;;;;;;;;;;5110009;28;20178;-85
2023/06/24 01:38:22;;;;;;;7.90;7.13;;;;;;;;;;5097771;28;20196;-85
2023/06/24 01:40:49;;;;;;;8.40;7.60;;;;;;;;;;5095390;28;20201;-85
2023/06/24 01:43:16;;;;;;;8.10;7.30;;;;;;;;;;5077303;28;20191;-85
2023/06/24 01:45:48;;;;;;;8.73;7.10;;;;;;;;;;5095488;28;20174;-85
2023/06/24 01:48:16;;;;;;;7.60;6.90;;;;;;;;;;5091986;28;20202;-78
2023/06/24 01:50:53;;;;;;;8.47;7.57;;;;;;;;;;5083076;28;20179;-78
2023/06/24 01:53:19;;;;;;;9.17;7.70;;;;;;;;;;5108415;28;20217;-78
2023/06/24 01:55:46;;;;;;;9.07;7.37;;;;;;;;;;5094216;28;20183;-79
2023/06/24 01:58:13;;;;;;;8.73;7.30;;;;;;;;;;5109082;28;20182;-78
2023/06/24 02:00:39;;;;;;;9.03;7.40;;;;;;;;;;5098831;28;20198;-78
2023/06/24 02:03:06;;;;;;;8.47;7.30;;;;;;;;;;5080764;28;20194;-76
2023/06/24 02:05:32;;;;;;;8.53;7.53;;;;;;;;;;5105601;28;20190;-76
2023/06/24 02:07:59;;;;;;;8.83;7.33;;;;;;;;;;5102617;28;20214;-76
2023/06/24 02:10:25;;;;;;;8.67;7.87;;;;;;;;;;5076617;28;20184;-76
2023/06/24 02:12:52;;;;;;;9.70;7.60;;;;;;;;;;5084934;28;20226;-76
2023/06/24 02:15:18;;;;;;;9.40;8.50;;;;;;;;;;5074740;28;20190;-76
2023/06/24 02:17:47;;;;;;;9.73;8.77;;;;;;;;;;5093748;28;20189;-76
2023/06/24 02:20:14;;;;;;;10.10;8.93;;;;;;;;;;5090330;28;20195;-79
2023/06/24 02:22:41;;;;;;;10.33;9.33;;;;;;;;;;5087526;28;20189;-79
2023/06/24 02:25:08;;;;;;;10.93;9.57;;;;;;;;;;5108524;28;20186;-79
2023/06/24 02:27:35;;;;;;;10.57;9.57;;;;;;;;;;5094449;28;20189;-78
2023/06/24 02:30:03;;;;;;;10.77;9.70;;;;;;;;;;5105469;28;20255;-79
2023/06/24 02:32:29;;;;;;;11.93;9.47;;;;;;;;;;5114771;28;20170;-79
2023/06/24 02:34:58;;;;;;;12.37;9.17;;;;;;;;;;5089051;28;20198;-79
2023/06/24 02:37:24;;;;;;;10.37;9.37;;;;;;;;;;5094263;28;20170;-78
2023/06/24 02:39:50;;;;;;;10.60;9.23;;;;;;;;;;5068260;28;20240;-78
2023/06/24 02:42:16;;;;;;;10.37;9.23;;;;;;;;;;5095716;28;20210;-78
2023/06/24 02:44:42;;;;;;;9.40;8.47;;;;;;;;;;5093610;28;20217;-78
2023/06/24 02:47:11;;;;;;;9.83;8.83;;;;;;;;;;5073740;28;20175;-78
2023/06/24 02:49:38;;;;;;;9.20;8.27;;;;;;;;;;5072409;28;20211;-78
2023/06/24 02:52:04;;;;;;;9.50;8.60;;;;;;;;;;5092142;28;20182;-78
2023/06/24 02:54:30;;;;;;;9.67;8.77;;;;;;;;;;5075433;28;20238;-85
2023/06/24 02:56:58;;;;;;;9.50;8.60;;;;;;;;;;5086404;28;20182;-85
2023/06/24 02:59:27;;;;;;;9.63;8.73;;;;;;;;;;5076199;28;20197;-85
2023/06/24 03:01:54;;;;;;;9.43;8.60;;;;;;;;;;5093012;28;20186;-85
2023/06/24 03:04:20;;;;;;;9.97;8.93;;;;;;;;;;5096665;28;20181;-85
2023/06/24 03:06:47;;;;;;;10.37;9.20;;;;;;;;;;5098053;28;20182;-84
2023/06/24 03:09:13;;;;;;;10.23;9.27;;;;;;;;;;5092809;28;20283;-84
2023/06/24 03:11:43;;;;;;;9.70;8.77;;;;;;;;;;5087207;28;20185;-78
2023/06/24 03:14:09;;;;;;;11.67;9.43;;;;;;;;;;5097091;28;20183;-79
2023/06/24 03:16:35;;;;;;;9.60;8.70;;;;;;;;;;5073332;28;20183;-79
2023/06/24 03:19:02;;;;;;;8.97;8.17;;;;;;;;;;5079564;28;20187;-79
2023/06/24 03:21:28;;;;;;;11.63;9.40;;;;;;;;;;5094308;28;20253;-79
2023/06/24 03:23:54;;;;;;;9.33;8.30;;;;;;;;;;5105717;28;20190;-79
2023/06/24 03:26:21;;;;;;;10.00;8.97;;;;;;;;;;5088865;28;20198;-85
2023/06/24 03:28:47;;;;;;;9.33;8.37;;;;;;;;;;5089776;28;20214;-86
2023/06/24 03:31:15;;;;;;;9.37;8.43;;;;;;;;;;5096656;28;20190;-85
2023/06/24 03:33:44;;;;;;;10.27;9.27;;;;;;;;;;5096978;28;20182;-85
2023/06/24 03:36:10;;;;;;;9.40;8.60;;;;;;;;;;5076402;28;20184;-84
2023/06/24 03:38:36;;;;;;;9.73;8.73;;;;;;;;;;5072973;28;20193;-85
2023/06/24 03:41:02;;;;;;;9.83;8.93;;;;;;;;;;5076318;28;20284;-85
2023/06/24 03:43:28;;;;;;;9.87;8.83;;;;;;;;;;5092015;28;20186;-78
2023/06/24 03:45:55;;;;;;;9.63;8.77;;;;;;;;;;5100725;28;20267;-78
2023/06/24 03:48:21;;;;;;;9.53;8.60;;;;;;;;;;5095592;28;20207;-78
2023/06/24 03:50:47;;;;;;;10.00;9.00;;;;;;;;;;5096526;28;20186;-78
2023/06/24 03:53:13;;;;;;;9.60;8.53;;;;;;;;;;5076644;28;20223;-78
2023/06/24 03:55:39;;;;;;;10.30;9.13;;;;;;;;;;5093441;28;20217;-78
2023/06/24 03:58:05;;;;;;;10.50;9.40;;;;;;;;;;5082723;28;20194;-78
2023/06/24 04:00:31;;;;;;;9.77;8.80;;;;;;;;;;5095737;28;20220;-78
2023/06/24 04:03:00;;;;;;;9.90;8.90;;;;;;;;;;5074896;28;20191;-78
2023/06/24 04:05:26;;;;;;;9.70;8.80;;;;;;;;;;5076576;28;20190;-78
2023/06/24 04:07:53;;;;;;;10.03;9.03;;;;;;;;;;5078330;28;20218;-78
2023/06/24 04:10:19;;;;;;;9.90;9.00;;;;;;;;;;5095802;28;20273;-78
2023/06/24 04:12:46;;;;;;;9.40;8.50;;;;;;;;;;5102114;28;20181;-78
2023/06/24 04:15:12;;;;;;;9.67;8.77;;;;;;;;;;5086323;28;20191;-78
2023/06/24 04:17:38;;;;;;;9.77;8.87;;;;;;;;;;5077781;28;20187;-76
2023/06/24 04:20:07;;;;;;;9.83;8.53;;;;;;;;;;5094959;28;20182;-76
2023/06/24 04:22:33;;;;;;;10.80;9.07;;;;;;;;;;5091327;28;20179;-76
2023/06/24 04:24:59;;;;;;;10.07;9.17;;;;;;;;;;5075912;28;20178;-76
2023/06/24 04:27:25;;;;;;;11.13;9.33;;;;;;;;;;5061840;28;20193;-75
2023/06/24 04:29:51;;;;;;;10.17;9.33;;;;;;;;;;5078653;28;20203;-76
2023/06/24 04:32:17;;;;;;;10.60;9.60;;;;;;;;;;5076960;28;20190;-76
2023/06/24 04:34:43;;;;;;;10.13;9.20;;;;;;;;;;5092231;28;20182;-78
2023/06/24 04:37:10;;;;;;;10.90;9.77;;;;;;;;;;5072408;28;20182;-79
2023/06/24 04:39:36;;;;;;;10.10;9.20;;;;;;;;;;5091700;28;20197;-79
2023/06/24 04:42:02;;;;;;;10.93;9.83;;;;;;;;;;5084768;28;20182;-79
2023/06/24 04:44:28;;;;;;;10.90;9.90;;;;;;;;;;5089735;28;20187;-80
2023/06/24 04:46:54;;;;;;;10.77;9.57;;;;;;;;;;5092648;28;20214;-79
2023/06/24 04:49:20;;;;;;;11.47;10.37;;;;;;;;;;5096774;28;20233;-85
2023/06/24 04:51:46;;;;;;;12.50;10.23;;;;;;;;;;5090035;28;20199;-86
2023/06/24 04:54:12;;;;;;;11.83;10.63;;;;;;;;;;5076675;28;20219;-85
2023/06/24 04:56:38;;;;;;;11.33;10.27;;;;;;;;;;5069604;28;20186;-82
2023/06/24 04:59:04;;;;;;;11.90;10.70;;;;;;;;;;5090537;28;20189;-84
2023/06/24 05:01:30;;;;;;;12.33;11.13;;;;;;;;;;5094733;28;20190;-86
2023/06/24 05:03:56;;;;;;;11.87;10.80;;;;;;;;;;5071642;28;20194;-84
2023/06/24 05:06:23;;;;;;;15.37;11.20;;;;;;;;;;5089840;28;20247;-78
2023/06/24 05:08:48;;;;;;;11.40;10.37;;;;;;;;;;5068809;28;20321;-78
2023/06/24 05:11:15;;;;;;;12.50;11.30;;;;;;;;;;5085389;28;20270;-78
2023/06/24 05:13:41;;;;;;;13.57;12.27;;;;;;;;;;5084220;28;20167;-78
2023/06/24 05:16:07;;;;;;;14.30;12.80;;;;;;;;;;5084732;28;20270;-78
2023/06/24 05:18:33;;;;;;;14.27;12.77;;;;;;;;;;5085873;28;20215;-78
2023/06/24 05:20:59;;;;;;;14.03;12.73;;;;;;;;;;5067497;28;20182;-78
2023/06/24 05:23:25;;;;;;;14.57;12.90;;;;;;;;;;5067627;28;20175;-78
2023/06/24 05:25:51;;;;;;;14.33;13.03;;;;;;;;;;5066218;28;20183;-78
2023/06/24 05:28:17;;;;;;;14.20;12.80;;;;;;;;;;5083776;28;20256;-78
2023/06/24 05:30:45;;;;;;;13.27;11.97;;;;;;;;;;5067008;28;20179;-78
2023/06/24 05:33:11;;;;;;;13.43;12.10;;;;;;;;;;5085890;28;20175;-78
2023/06/24 05:35:40;;;;;;;13.33;11.93;;;;;;;;;;5088257;28;20170;-78
2023/06/24 05:38:06;;;;;;;13.20;12.00;;;;;;;;;;5065915;28;20178;-78
2023/06/24 05:40:32;;;;;;;14.00;12.47;;;;;;;;;;5084692;28;20227;-78
2023/06/24 05:42:58;;;;;;;13.77;12.37;;;;;;;;;;5085977;28;20186;-78
2023/06/24 05:45:24;;;;;;;14.77;13.37;;;;;;;;;;5071860;28;20193;-79
2023/06/24 05:47:50;;;;;;;15.07;13.50;;;;;;;;;;5070181;28;20186;-78
2023/06/24 05:50:16;;;;;;;15.97;13.57;;;;;;;;;;5090366;28;20179;-79
2023/06/24 05:52:42;;;;;;;14.63;13.27;;;;;;;;;;5068681;28;20179;-79
2023/06/24 05:55:09;;;;;;;12.77;11.47;;;;;;;;;;5068552;28;20241;-79
2023/06/24 05:57:35;;;;;;;13.13;11.83;;;;;;;;;;5091147;28;20181;-79
2023/06/24 06:00:03;;;;;;;10.30;8.90;;;;;;;;;;5076831;28;20191;-79
2023/06/24 06:02:29;;;;;;;9.57;8.57;;;;;;;;;;5094798;28;21545;-79
2023/06/24 06:04:55;;;;;;;11.33;7.87;;;;;;;;;;5065915;28;20296;-78
2023/06/24 06:07:21;;;;;;;10.17;7.53;;;;;;;;;;5069395;28;20191;-80
2023/06/24 06:09:47;;;;;;;8.63;6.90;;;;;;;;;;5085117;28;20209;-80
2023/06/24 06:12:13;;;;;;;7.63;6.43;;;;;;;;;;5078763;28;20210;-79
2023/06/24 06:14:39;;;;;;;8.13;7.03;;;;;;;;;;5073793;28;20172;-80
2023/06/24 06:17:05;;;;;;;8.87;6.30;;;;;;;;;;5073542;28;20185;-80
2023/06/24 06:19:31;;;;;;;7.90;6.07;;;;;;;;;;5073361;28;20183;-80
2023/06/24 06:21:57;;;;;;;9.53;7.03;;;;;;;;;;5056857;28;20191;-80
2023/06/24 06:24:23;;;;;;;7.27;6.50;;;;;;;;;;5089106;28;20187;-79
2023/06/24 06:26:49;;;;;;;7.03;5.70;;;;;;;;;;5091886;28;20190;-79
2023/06/24 06:29:15;;;;;;;8.23;6.30;;;;;;;;;;5070839;28;20225;-80
2023/06/24 06:31:41;;;;;;;7.53;6.13;;;;;;;;;;5074150;28;20180;-79
2023/06/24 06:34:08;;;;;;;6.23;5.17;;;;;;;;;;5087999;28;20183;-79
2023/06/24 06:36:34;;;;;;;7.93;5.50;;;;;;;;;;5072144;28;20186;-79
2023/06/24 06:39:00;;;;;;;8.60;5.53;;;;;;;;;;5113805;28;20178;-79
2023/06/24 06:41:26;;;;;;;7.33;5.37;;;;;;;;;;5087015;28;20228;-79
2023/06/24 06:43:52;;;;;;;6.00;5.40;;;;;;;;;;5105350;28;20190;-79
2023/06/24 06:46:18;;;;;;;7.63;6.00;;;;;;;;;;5087409;22;20235;-85
2023/06/24 06:48:44;;;;;;;7.03;5.90;;;;;;;;;;5071983;28;20215;-85
2023/06/24 06:51:10;;;;;;;7.33;6.00;;;;;;;;;;5072699;28;20183;-85
2023/06/24 06:53:36;;;;;;;7.53;6.37;;;;;;;;;;5073074;28;20176;-84
2023/06/24 06:56:02;;;;;;;11.83;7.13;;;;;;;;;;5074308;28;20180;-84
2023/06/24 06:58:28;;;;;;;8.43;6.67;;;;;;;;;;5060733;28;20280;-84
2023/06/24 07:00:55;;;;;;;7.50;6.70;;;;;;;;;;5060498;28;20215;-85
2023/06/24 07:03:21;;;;;;;9.23;6.73;;;;;;;;;;5056642;28;20187;-84
2023/06/24 07:05:47;;;;;;;7.80;6.53;;;;;;;;;;5056800;28;20179;-82
2023/06/24 07:08:13;;;;;;;6.20;5.60;;;;;;;;;;5056586;28;20207;-85
2023/06/24 07:10:39;;;;;;;7.53;6.47;;;;;;;;;;5056942;28;20206;-83
2023/06/24 07:13:05;;;;;;;7.87;6.23;;;;;;;;;;5071600;28;20262;-84
2023/06/24 07:15:31;;;;;;;8.83;6.73;;;;;;;;;;5054695;28;20180;-83
2023/06/24 07:17:57;;;;;;;7.60;6.47;;;;;;;;;;5055972;28;20196;-88
2023/06/24 07:20:23;;;;;;;10.03;7.07;;;;;;;;;;5059614;28;20187;-84
2023/06/24 07:22:49;;;;;;;8.83;6.70;;;;;;;;;;5060642;28;20207;-84
2023/06/24 07:25:16;;;;;;;7.90;6.33;;;;;;;;;;5031550;28;20180;-85
2023/06/24 07:27:42;;;;;;;7.73;6.17;;;;;;;;;;5040763;28;20261;-84
2023/06/24 07:30:08;;;;;;;7.17;5.87;;;;;;;;;;5060155;28;20183;-85
2023/06/24 07:32:34;;;;;;;6.40;5.80;;;;;;;;;;5062644;28;20184;-86
2023/06/24 07:35:00;;;;;;;9.27;7.83;;;;;;;;;;5074110;28;20179;-85
2023/06/24 07:37:26;;;;;;;8.83;7.93;;;;;;;;;;5076351;28;20201;-81
2023/06/24 07:39:52;;;;;;;9.07;7.10;;;;;;;;;;5060175;28;20187;-88
2023/06/24 07:42:19;;;;;;;8.27;7.47;;;;;;;;;;5065049;28;20226;-88
2023/06/24 07:44:45;;;;;;;7.67;6.33;;;;;;;;;;5055354;28;20215;-87
2023/06/24 07:47:11;;;;;;;8.43;7.63;;;;;;;;;;5017195;28;20232;-88
2023/06/24 07:49:37;;;;;;;7.73;6.70;;;;;;;;;;5016483;28;20217;-86
2023/06/24 07:52:04;;;;;;;6.10;5.50;;;;;;;;;;5027861;28;20195;-87
2023/06/24 07:54:30;;;;;;;9.47;5.53;;;;;;;;;;5023823;28;20176;-84
2023/06/24 07:56:56;;;;;;;6.67;4.93;;;;;;;;;;5039528;28;20172;-80
2023/06/24 07:59:23;;;;;;;6.10;5.50;;;;;;;;;;5042514;28;20217;-80
2023/06/24 08:01:49;;;;;;;7.17;4.90;;;;;;;;;;5028333;28;20198;-81
2023/06/24 08:04:15;;;;;;;5.47;4.33;;;;;;;;;;5042581;28;20187;-81
2023/06/24 08:06:41;;;;;;;5.10;4.45;;;;;;;;;;5042640;28;20190;-80
2023/06/24 08:09:08;;;;;;;6.55;5.25;;;;;;;;;;5056535;28;20211;-81
2023/06/24 08:11:34;;;;;;;7.18;6.47;;;;;;;;;;5041192;28;20194;-81
2023/06/24 08:14:01;;;;;;;8.00;5.53;;;;;;;;;;5041679;28;20184;-81
2023/06/24 08:16:27;;;;;;;5.53;4.50;;;;;;;;;;5022988;28;20190;-81
2023/06/24 08:18:53;;;;;;;6.57;5.03;;;;;;;;;;5022828;28;20184;-80
2023/06/24 08:21:20;;;;;;;4.93;4.43;;;;;;;;;;5020954;28;20196;-80
2023/06/24 08:23:46;;;;;;;4.93;4.22;;;;;;;;;;5039198;28;20206;-81
2023/06/24 08:26:12;;;;;;;4.82;4.10;;;;;;;;;;5022551;28;20191;-81
2023/06/24 08:28:38;;;;;;;4.93;3.85;;;;;;;;;;5039046;28;20200;-81
2023/06/24 08:31:04;;;;;;;4.28;3.88;;;;;;;;;;5049047;28;20183;-81
2023/06/24 08:33:30;;;;;;;3.83;3.53;;;;;;;;;;5039237;28;20207;-82
2023/06/24 08:35:56;;;;;;;4.68;3.97;;;;;;;;;;5055147;28;20187;-80
2023/06/24 08:38:22;;;;;;;4.57;3.67;;;;;;;;;;5058392;28;20214;-80
2023/06/24 08:40:49;;;;;;;4.03;3.63;;;;;;;;;;5058080;28;20175;-80
2023/06/24 08:43:16;;;;;;;4.82;3.33;;;;;;;;;;5058318;28;20171;-83
2023/06/24 08:45:42;;;;;;;3.78;3.47;;;;;;;;;;5053813;28;20311;-82
2023/06/24 08:48:08;;;;;;;5.22;4.47;;;;;;;;;;5058059;28;20293;-83
2023/06/24 08:50:41;;;;;;;4.93;4.10;;;;;;;;;;5041381;28;20180;-81
2023/06/24 08:53:10;;;;;;;4.70;4.13;;;;;;;;;;5057999;28;20167;-87
2023/06/24 08:55:46;;;;;;;5.90;4.72;;;;;;;;;;5057993;28;20262;-84
2023/06/24 08:58:13;;;;;;;12.00;4.40;;;;;;;;;;5041936;28;20182;-86
2023/06/24 09:00:39;;;;;;;5.65;4.72;;;;;;;;;;5063492;28;20211;-85
2023/06/24 09:03:05;;;;;;;4.60;4.18;;;;;;;;;;5074834;28;20186;-86
2023/06/24 09:05:32;;;;;;;4.90;4.35;;;;;;;;;;5074606;28;20229;-86
2023/06/24 09:07:58;;;;;;;4.50;4.10;;;;;;;;;;5057636;28;20300;-84
2023/06/24 09:10:34;;;;;;;5.18;4.50;;;;;;;;;;5057040;28;20190;-85
2023/06/24 09:13:03;;;;;;;4.97;4.10;;;;;;;;;;5074657;28;20259;-84
2023/06/24 09:15:30;;;;;;;7.82;4.03;;;;;;;;;;5074318;28;20172;-85
2023/06/24 09:18:03;;;;;;;5.80;5.20;;;;;;;;;;5053921;28;20221;-90
2023/06/24 09:20:30;;;;;;;4.78;4.30;;;;;;;;;;5074059;28;20211;-87
2023/06/24 09:23:03;;;;;;;6.13;5.03;;;;;;;;;;5066010;28;20266;-88
2023/06/24 09:25:30;;;;;;;8.05;4.90;;;;;;;;;;5078171;28;20239;-89
2023/06/24 09:28:00;;;;;;;6.28;5.50;;;;;;;;;;5071660;28;20183;-89
2023/06/24 09:30:27;;;;;;;7.07;4.57;;;;;;;;;;5064202;28;20175;-90
2023/06/24 09:33:14;;;;;;;6.10;5.32;;;;;;;;;;5057299;28;20214;-89
2023/06/24 09:35:39;;;;;;;6.38;5.35;;;;;;;;;;5086678;28;20174;-88
2023/06/24 09:38:05;;;;;;;5.28;4.78;;;;;;;;;;5076661;28;20254;-90
2023/06/24 09:40:36;;;;;;;5.47;4.95;;;;;;;;;;5068058;28;20182;-89
2023/06/24 09:43:03;;;;;;;6.93;5.03;;;;;;;;;;5065537;28;20221;-87
2023/06/24 09:45:32;;;;;;;5.20;4.53;;;;;;;;;;5050501;28;20224;-91
2023/06/24 09:48:02;;;;;;;6.47;5.68;;;;;;;;;;5055207;28;20188;-88
2023/06/24 09:50:28;;;;;;;8.73;6.82;;;;;;;;;;5043902;28;20181;-86
2023/06/24 09:52:56;;;;;;;7.20;6.03;;;;;;;;;;5033185;28;20173;-86
2023/06/24 09:55:22;;;;;;;5.80;4.85;;;;;;;;;;5032825;28;20164;-86
2023/06/24 09:57:51;;;;;;;6.53;4.90;;;;;;;;;;5033343;28;20180;-86
2023/06/24 10:00:19;;;;;;;5.10;4.63;;;;;;;;;;5033552;28;20172;-85
2023/06/24 10:02:45;;;;;;;6.55;4.68;;;;;;;;;;5033483;28;20183;-87
2023/06/24 10:05:17;;;;;;;6.07;4.45;;;;;;;;;;5033479;28;20219;-84
2023/06/24 10:07:43;;;;;;;7.60;5.30;;;;;;;;;;5033429;28;20177;-88
2023/06/24 10:10:10;;;;;;;6.05;5.45;;;;;;;;;;5033198;28;20201;-85
2023/06/24 10:12:36;;;;;;;7.47;6.50;;;;;;;;;;5033189;28;20219;-85
2023/06/24 10:15:02;;;;;;;7.88;6.57;;;;;;;;;;5033709;28;20246;-85
2023/06/24 10:17:30;;;;;;;8.70;6.65;;;;;;;;;;5033554;28;20173;-85
2023/06/24 10:19:58;;;;;;;6.82;6.13;;;;;;;;;;5033339;28;20169;-85
2023/06/24 10:22:25;;;;;;;7.63;6.85;;;;;;;;;;5016919;28;20247;-86
2023/06/24 10:24:52;;;;;;;7.05;5.40;;;;;;;;;;5032787;28;20177;-85
2023/06/24 10:27:22;;;;;;;7.30;6.25;;;;;;;;;;5048997;28;20187;-85
2023/06/24 10:29:49;;;;;;;6.47;5.88;;;;;;;;;;5062580;28;20229;-86
2023/06/24 10:32:23;;;;;;;6.43;5.38;;;;;;;;;;5062016;28;20317;-85
2023/06/24 10:34:56;;;;;;;5.78;5.20;;;;;;;;;;5069278;28;20182;-86
2023/06/24 10:37:24;;;;;;;7.93;6.82;;;;;;;;;;5057248;28;20175;-85
2023/06/24 10:39:57;;;;;;;7.47;6.25;;;;;;;;;;5068218;28;20273;-86
2023/06/24 10:42:29;;;;;;;8.57;6.13;;;;;;;;;;5057630;28;20191;-87
2023/06/24 10:44:56;;;;;;;8.63;6.60;;;;;;;;;;5055644;28;20175;-85
2023/06/24 10:47:27;;;;;;;7.38;5.40;;;;;;;;;;5056694;28;20187;-85
2023/06/24 10:49:53;;;;;;;7.40;5.53;;;;;;;;;;5057125;28;20238;-85
2023/06/24 10:52:21;;;;;;;8.75;6.80;;;;;;;;;;5051435;28;20245;-87
2023/06/24 10:54:47;;;;;;;10.27;6.60;;;;;;;;;;5051528;28;20188;-86
2023/06/24 10:57:13;;;;;;;7.40;6.25;;;;;;;;;;5053147;28;20176;-85
2023/06/24 10:59:43;;;;;;;7.15;6.40;;;;;;;;;;5052615;28;20230;-85
2023/06/24 11:02:11;;;;;;;8.25;5.55;;;;;;;;;;5052288;28;20188;-86
2023/06/24 11:04:44;;;;;;;7.63;5.65;;;;;;;;;;5052810;28;20266;-85
2023/06/24 11:07:11;;;;;;;7.20;6.10;;;;;;;;;;5053293;28;20230;-86
2023/06/24 11:09:37;;;;;;;6.10;5.50;;;;;;;;;;5053004;28;20222;-85
2023/06/24 11:12:03;;;;;;;6.22;4.72;;;;;;;;;;5052556;28;20183;-83
2023/06/24 11:14:32;;;;;;;7.90;5.28;;;;;;;;;;5051227;28;20188;-84
2023/06/24 11:17:01;;;;;;;6.28;5.40;;;;;;;;;;5039171;28;20190;-83
2023/06/24 11:19:27;;;;;;;6.10;5.28;;;;;;;;;;5063216;28;20219;-84
2023/06/24 11:21:53;;;;;;;6.20;4.97;;;;;;;;;;5055891;28;20191;-86
2023/06/24 11:24:19;;;;;;;7.95;5.68;;;;;;;;;;5060740;28;20180;-88
2023/06/24 11:26:46;;;;;;;9.88;5.70;;;;;;;;;;5061462;28;20202;-83
2023/06/24 11:29:12;;;;;;;10.30;5.65;;;;;;;;;;5040365;28;20252;-81
2023/06/24 11:31:38;;;;;;;7.18;5.70;;;;;;;;;;5070266;28;20254;-81
2023/06/24 11:34:05;;;;;;;5.75;5.18;;;;;;;;;;5069338;28;20234;-81
2023/06/24 11:36:31;;;;;;;5.85;5.32;;;;;;;;;;5073110;28;20201;-81
2023/06/24 11:38:57;;;;;;;9.30;5.80;;;;;;;;;;5051688;28;20180;-82
2023/06/24 11:41:25;;;;;;;6.93;6.18;;;;;;;;;;5048060;28;20225;-80
2023/06/24 11:43:51;;;;;;;6.90;5.40;;;;;;;;;;5059393;28;20202;-80
2023/06/24 11:46:35;;;;;;;8.35;5.10;;;;;;;;;;5059195;28;20309;-81
2023/06/24 11:49:05;;;;;;;5.55;4.97;;;;;;;;;;5070458;28;20203;-80
2023/06/24 11:51:31;;;;;;;6.47;5.82;;;;;;;;;;5076177;28;20172;-81
2023/06/24 11:54:02;;;;;;;6.50;5.70;;;;;;;;;;5060689;28;20207;-81
2023/06/24 11:56:38;;;;;;;5.57;4.43;;;;;;;;;;5059316;28;20176;-81
2023/06/24 11:59:05;;;;;;;7.38;4.40;;;;;;;;;;5023966;28;20184;-81
2023/06/24 12:01:32;;;;;;;7.63;6.38;;;;;;;;;;5056018;28;20187;-81
2023/06/24 12:04:00;;;;;;;6.10;5.50;;;;;;;;;;5055033;28;20180;-81
2023/06/24 12:06:26;;;;;;;5.10;4.60;;;;;;;;;;5055809;28;20191;-82
2023/06/24 12:08:52;;;;;;;4.95;4.45;;;;;;;;;;5038806;28;20254;-81
2023/06/24 12:11:19;;;;;;;4.72;4.32;;;;;;;;;;5036761;28;20267;-82
2023/06/24 12:13:45;;;;;;;9.40;5.22;;;;;;;;;;5041570;28;20183;-81
2023/06/24 12:16:11;;;;;;;4.80;4.28;;;;;;;;;;5049174;28;20191;-82
2023/06/24 12:18:37;;;;;;;7.72;4.60;;;;;;;;;;5046993;28;20180;-82
2023/06/24 12:21:03;;;;;;;5.72;4.70;;;;;;;;;;5029757;28;20256;-82
2023/06/24 12:23:29;;;;;;;6.20;5.15;;;;;;;;;;5030468;28;20196;-82
2023/06/24 12:25:55;;;;;;;5.95;4.85;;;;;;;;;;5030179;28;20203;-82
2023/06/24 12:28:21;;;;;;;6.95;5.05;;;;;;;;;;5044957;28;20211;-82
2023/06/24 12:30:51;;;;;;;4.55;4.15;;;;;;;;;;5029298;28;20180;-82
2023/06/24 12:33:19;;;;;;;6.32;5.35;;;;;;;;;;5072437;28;20187;-82
2023/06/24 12:35:46;;;;;;;5.68;5.03;;;;;;;;;;5038332;28;20172;-82
2023/06/24 12:38:12;;;;;;;6.30;4.40;;;;;;;;;;5046817;28;20192;-82
2023/06/24 12:40:38;;;;;;;7.85;4.65;;;;;;;;;;5063398;28;20168;-82
2023/06/24 12:43:05;;;;;;;4.40;4.00;;;;;;;;;;5038688;28;20183;-81
2023/06/24 12:45:31;;;;;;;5.85;3.95;;;;;;;;;;5038746;28;20212;-84
2023/06/24 12:47:57;;;;;;;5.22;4.28;;;;;;;;;;5055269;28;20243;-82
2023/06/24 12:50:23;;;;;;;4.57;4.13;;;;;;;;;;5057766;28;20236;-82
2023/06/24 12:52:49;;;;;;;5.10;3.97;;;;;;;;;;5032858;28;20176;-82
2023/06/24 12:55:15;;;;;;;4.47;3.70;;;;;;;;;;5057228;28;20172;-82
2023/06/24 12:57:41;;;;;;;6.97;4.38;;;;;;;;;;5057848;28;20258;-82
2023/06/24 13:00:08;;;;;;;5.57;4.03;;;;;;;;;;5060121;28;20183;-82
2023/06/24 13:02:34;;;;;;;6.28;5.13;;;;;;;;;;5057495;28;20186;-82
2023/06/24 13:05:00;;;;;;;5.10;4.60;;;;;;;;;;5058110;28;20278;-82
2023/06/24 13:07:26;;;;;;;6.18;4.82;;;;;;;;;;5054079;28;20213;-82
2023/06/24 13:09:52;;;;;;;4.15;3.75;;;;;;;;;;5045746;28;20200;-82
2023/06/24 13:12:18;;;;;;;4.40;4.00;;;;;;;;;;5074532;28;20190;-82
2023/06/24 13:14:44;;;;;;;4.93;4.22;;;;;;;;;;5048913;28;20180;-86
2023/06/24 13:17:10;;;;;;;4.78;3.80;;;;;;;;;;5041051;28;20262;-82
2023/06/24 13:19:36;;;;;;;5.18;4.05;;;;;;;;;;5049574;28;20187;-83
2023/06/24 13:22:02;;;;;;;5.38;3.70;;;;;;;;;;5041220;28;20206;-82
2023/06/24 13:24:28;;;;;;;4.90;3.50;;;;;;;;;;5031327;28;20215;-82
2023/06/24 13:26:55;;;;;;;5.90;4.22;;;;;;;;;;5074056;28;20210;-82
2023/06/24 13:29:21;;;;;;;4.32;3.92;;;;;;;;;;5057071;28;20209;-84
2023/06/24 13:31:47;;;;;;;5.35;4.32;;;;;;;;;;5057224;28;20167;-85
2023/06/24 13:34:13;;;;;;;6.03;5.00;;;;;;;;;;5057510;28;20175;-85
2023/06/24 13:36:40;;;;;;;5.85;5.25;;;;;;;;;;5057491;28;20254;-85
2023/06/24 13:39:07;;;;;;;5.95;4.65;;;;;;;;;;5056908;28;20175;-85
2023/06/24 13:41:33;;;;;;;4.85;4.20;;;;;;;;;;5073658;28;20183;-85
2023/06/24 13:44:00;;;;;;;5.32;4.35;;;;;;;;;;5056777;28;20195;-85
2023/06/24 13:46:26;;;;;;;4.55;3.72;;;;;;;;;;5040153;28;20325;-85
2023/06/24 13:48:52;;;;;;;4.10;3.75;;;;;;;;;;5040314;28;20218;-86
2023/06/24 13:51:20;;;;;;;5.57;4.53;;;;;;;;;;5056653;28;20197;-83
2023/06/24 13:53:46;;;;;;;5.20;4.47;;;;;;;;;;5056587;28;20171;-82
2023/06/24 13:56:12;;;;;;;5.30;4.82;;;;;;;;;;5051939;28;20191;-82
2023/06/24 13:58:38;;;;;;;5.00;4.20;;;;;;;;;;5059483;28;20180;-82
2023/06/24 14:01:04;;;;;;;4.65;4.25;;;;;;;;;;5056688;28;20179;-82
2023/06/24 14:03:30;;;;;;;8.80;4.88;;;;;;;;;;5040050;28;20186;-82
2023/06/24 14:05:56;;;;;;;7.43;4.40;;;;;;;;;;5039030;28;20274;-82
2023/06/24 14:08:23;;;;;;;6.40;4.43;;;;;;;;;;5040221;28;20203;-82
2023/06/24 14:10:49;;;;;;;4.90;4.45;;;;;;;;;;5040007;28;20175;-82
2023/06/24 14:13:15;;;;;;;5.10;4.00;;;;;;;;;;5039976;28;20180;-82
2023/06/24 14:15:41;;;;;;;5.07;4.20;;;;;;;;;;5039936;28;20179;-82
2023/06/24 14:18:07;;;;;;;4.95;4.32;;;;;;;;;;5056217;28;20175;-82
2023/06/24 14:20:33;;;;;;;4.85;4.45;;;;;;;;;;5056125;28;20172;-82
2023/06/24 14:22:59;;;;;;;6.90;4.90;;;;;;;;;;5056144;28;20187;-81
2023/06/24 14:25:25;;;;;;;5.70;5.10;;;;;;;;;;5039721;28;20174;-82
2023/06/24 14:27:51;;;;;;;8.35;4.85;;;;;;;;;;5056203;28;20175;-82
2023/06/24 14:30:17;;;;;;;5.75;5.25;;;;;;;;;;5055241;28;20440;-81
2023/06/24 14:32:46;;;;;;;5.18;4.68;;;;;;;;;;5055195;28;20183;-82
2023/06/24 14:35:12;;;;;;;5.22;4.72;;;;;;;;;;5068808;28;20179;-82
2023/06/24 14:37:38;;;;;;;5.90;4.60;;;;;;;;;;5039687;28;20189;-82